Wyatt, Indiana
Current Conditions -  °F | °C
As of 12:54 AM on Sunday 26 Oct 2014 (Local Time) from KSBN Reporting Station
Clear Clear  
Wind Chill: 56°   Ceiling: Unl
Heat Index: 56°   Visibility: 10mi
Dew Point: 32°   Wind: 13mph
Humidity: 40%   Direction: 320°NW
Pressure: 29.95"   Gusts: NA
Location:  41.53°N, 86.17°W
Report Text: KSBN 260454Z 32011KT 10SM CLR 13/00 A2995 RMK AO2 SLP141 T01330000 402060094
Loading
Personal Weather Stations






























Interactive Weather Map
Tropical Storm Tracking
New forecast layout! Learn more

10-Day Weather Forecast

Advertisements
Track Severe Weather on mobile